createdAt,value
2018-10-09T00:00:40.005Z,9.90
2018-10-09T00:03:08.699Z,10.93
2018-10-09T00:05:37.318Z,10.73
2018-10-09T00:08:06.102Z,9.43
2018-10-09T00:10:34.812Z,10.33
2018-10-09T00:13:03.594Z,10.63
2018-10-09T00:15:32.239Z,10.73
2018-10-09T00:18:00.909Z,9.73
2018-10-09T00:20:29.634Z,10.63
2018-10-09T00:22:59.597Z,9.33
2018-10-09T00:25:28.285Z,10.37
2018-10-09T00:27:57.261Z,10.93
2018-10-09T00:30:26.745Z,10.47
2018-10-09T00:32:55.641Z,10.20
2018-10-09T00:35:24.307Z,13.67
2018-10-09T00:37:53.045Z,13.07
2018-10-09T00:40:21.727Z,11.13
2018-10-09T00:42:50.425Z,10.83
2018-10-09T00:45:19.125Z,12.63
2018-10-09T00:47:47.786Z,12.10
2018-10-09T00:50:16.408Z,11.10
2018-10-09T00:52:45.084Z,11.33
2018-10-09T00:55:13.846Z,10.77
2018-10-09T00:57:42.685Z,10.87
2018-10-09T01:00:11.461Z,10.40
2018-10-09T01:02:40.196Z,9.57
2018-10-09T01:05:09.053Z,11.10
2018-10-09T01:07:37.714Z,10.03
2018-10-09T01:10:06.562Z,9.97
2018-10-09T01:12:35.286Z,10.33
2018-10-09T01:15:03.957Z,12.53
2018-10-09T01:17:32.610Z,11.47
2018-10-09T01:20:01.330Z,9.57
2018-10-09T01:22:30.000Z,8.73
2018-10-09T01:24:58.681Z,11.83
2018-10-09T01:27:27.388Z,9.80
2018-10-09T01:29:56.078Z,11.60
2018-10-09T01:32:25.228Z,10.77
2018-10-09T01:34:54.005Z,12.23
2018-10-09T01:37:22.683Z,13.43
2018-10-09T01:39:51.421Z,14.87
2018-10-09T01:42:20.172Z,14.07
2018-10-09T01:44:48.828Z,13.47
2018-10-09T01:47:17.535Z,13.07
2018-10-09T01:49:46.178Z,13.40
2018-10-09T01:52:14.812Z,19.40
2018-10-09T01:54:43.488Z,14.60
2018-10-09T01:57:12.154Z,14.63
2018-10-09T01:59:40.783Z,13.67
2018-10-09T02:02:09.548Z,14.00
2018-10-09T02:04:38.228Z,15.37
2018-10-09T02:07:07.037Z,15.43
2018-10-09T02:09:35.680Z,14.67
2018-10-09T02:12:04.404Z,14.20
2018-10-09T02:14:33.054Z,11.47
2018-10-09T02:17:01.729Z,12.77
2018-10-09T02:19:30.461Z,12.37
2018-10-09T02:21:59.144Z,10.20
2018-10-09T02:24:27.876Z,9.27
2018-10-09T02:26:56.507Z,10.47
2018-10-09T02:29:25.179Z,11.00
2018-10-09T02:31:53.849Z,12.57
2018-10-09T02:34:22.500Z,15.33
2018-10-09T02:36:51.258Z,12.53
2018-10-09T02:39:20.025Z,12.17
2018-10-09T02:41:48.676Z,11.70
2018-10-09T02:44:17.319Z,10.20
2018-10-09T02:46:45.947Z,10.87
2018-10-09T02:49:14.627Z,10.53
2018-10-09T02:51:43.271Z,11.50
2018-10-09T02:54:11.917Z,11.97
2018-10-09T02:56:40.476Z,12.77
2018-10-09T02:59:09.089Z,13.87
2018-10-09T03:01:37.723Z,12.17
2018-10-09T03:04:06.520Z,13.43
2018-10-09T03:06:35.256Z,12.97
2018-10-09T03:09:05.061Z,13.93
2018-10-09T03:11:33.777Z,15.20
2018-10-09T03:14:02.480Z,13.87
2018-10-09T03:16:31.088Z,12.70
2018-10-09T03:18:59.736Z,14.37
2018-10-09T03:21:28.369Z,10.90
2018-10-09T03:23:57.020Z,14.33
2018-10-09T03:26:25.644Z,11.83
2018-10-09T03:28:54.352Z,12.93
2018-10-09T03:31:22.947Z,13.17
2018-10-09T03:33:51.600Z,18.70
2018-10-09T03:36:20.252Z,11.70
2018-10-09T03:38:48.903Z,12.60
2018-10-09T03:41:17.541Z,15.90
2018-10-09T03:43:46.131Z,11.70
2018-10-09T03:46:14.816Z,13.30
2018-10-09T03:48:43.400Z,12.60
2018-10-09T03:51:12.086Z,13.10
2018-10-09T03:53:40.841Z,13.63
2018-10-09T03:56:09.550Z,13.60
2018-10-09T03:58:38.257Z,15.80
2018-10-09T04:01:06.952Z,11.40
2018-10-09T04:03:35.653Z,13.50
2018-10-09T04:06:04.304Z,11.40
2018-10-09T04:08:32.951Z,13.00
2018-10-09T04:11:01.653Z,14.67
2018-10-09T04:13:30.365Z,14.23
2018-10-09T04:15:59.042Z,17.17
2018-10-09T04:18:27.715Z,15.23
2018-10-09T04:20:56.389Z,16.03
2018-10-09T04:23:24.943Z,17.53
2018-10-09T04:25:53.627Z,16.73
2018-10-09T04:28:22.277Z,18.30
2018-10-09T04:30:50.949Z,19.33
2018-10-09T04:33:19.588Z,19.20
2018-10-09T04:35:48.254Z,22.10
2018-10-09T04:38:16.887Z,19.90
2018-10-09T04:40:46.272Z,23.03
2018-10-09T04:43:14.950Z,24.33
2018-10-09T04:45:43.667Z,21.87
2018-10-09T04:48:12.311Z,22.77
2018-10-09T04:50:40.943Z,21.03
2018-10-09T04:53:09.729Z,25.13
2018-10-09T04:55:38.304Z,27.30
2018-10-09T04:58:06.958Z,25.30
2018-10-09T05:00:35.714Z,27.00
2018-10-09T05:03:04.340Z,31.67
2018-10-09T05:05:33.028Z,28.53
2018-10-09T05:08:01.675Z,27.73
2018-10-09T05:10:34.360Z,20.97
2018-10-09T05:13:04.017Z,19.00
2018-10-09T05:15:32.642Z,25.53
2018-10-09T05:18:01.308Z,22.07
2018-10-09T05:20:30.013Z,19.07
2018-10-09T05:22:58.736Z,15.57
2018-10-09T05:25:27.539Z,13.73
2018-10-09T05:27:56.178Z,17.80
2018-10-09T05:30:24.839Z,18.53
2018-10-09T05:32:53.501Z,15.50
2018-10-09T05:35:22.148Z,21.07
2018-10-09T05:37:50.892Z,24.03
2018-10-09T05:40:19.512Z,17.17
2018-10-09T05:42:48.185Z,17.27
2018-10-09T05:45:16.963Z,17.97
2018-10-09T05:47:45.595Z,17.50
2018-10-09T05:50:14.313Z,17.20
2018-10-09T05:52:43.123Z,18.60
2018-10-09T05:55:11.840Z,17.53
2018-10-09T05:57:40.499Z,15.50
2018-10-09T06:00:09.924Z,18.27
2018-10-09T06:02:38.663Z,19.80
2018-10-09T06:05:08.429Z,19.73
2018-10-09T06:07:37.107Z,16.00
2018-10-09T06:10:06.529Z,17.33
2018-10-09T06:12:35.222Z,16.20
2018-10-09T06:15:03.928Z,16.90
2018-10-09T06:17:32.676Z,19.60
2018-10-09T06:20:01.332Z,18.37
2018-10-09T06:22:30.096Z,16.67
2018-10-09T06:24:58.802Z,15.47
2018-10-09T06:27:27.716Z,16.87
2018-10-09T06:29:56.388Z,15.30
2018-10-09T06:32:25.254Z,15.77
2018-10-09T06:34:54.141Z,21.47
2018-10-09T06:37:22.844Z,16.00
2018-10-09T06:41:38.041Z,18.43
2018-10-09T06:44:06.700Z,14.83
2018-10-09T06:46:35.372Z,15.33
2018-10-09T06:49:04.105Z,16.23
2018-10-09T06:51:33.681Z,14.30
2018-10-09T06:54:02.828Z,15.27
2018-10-09T06:56:31.710Z,15.27
2018-10-09T06:59:00.805Z,16.43
2018-10-09T07:01:31.441Z,19.27
2018-10-09T07:04:01.006Z,18.63
2018-10-09T07:06:30.114Z,16.97
2018-10-09T07:08:59.373Z,19.83
2018-10-09T07:11:30.357Z,15.60
2018-10-09T07:13:59.964Z,15.93
2018-10-09T07:16:28.799Z,15.67
2018-10-09T07:18:57.430Z,16.50
2018-10-09T07:21:26.091Z,15.17
2018-10-09T07:23:54.727Z,16.73
2018-10-09T07:26:23.762Z,17.07
2018-10-09T07:28:52.402Z,17.20
2018-10-09T07:31:21.227Z,21.93
2018-10-09T07:33:49.876Z,20.83
2018-10-09T07:36:20.742Z,25.70
2018-10-09T07:38:49.477Z,29.50
2018-10-09T07:41:18.180Z,28.03
2018-10-09T07:43:46.903Z,25.90
2018-10-09T07:46:15.612Z,23.27
2018-10-09T07:48:44.293Z,26.53
2018-10-09T07:51:12.973Z,25.97
2018-10-09T07:53:41.673Z,26.63
2018-10-09T07:56:10.519Z,24.50
2018-10-09T07:58:40.251Z,22.73
2018-10-09T08:01:09.502Z,18.93
2018-10-09T08:03:38.141Z,23.30
2018-10-09T08:06:06.837Z,23.53
2018-10-09T08:08:35.492Z,29.33
2018-10-09T08:11:04.314Z,28.20
2018-10-09T08:13:33.028Z,25.57
2018-10-09T08:16:01.680Z,25.17
2018-10-09T08:18:30.652Z,26.03
2018-10-09T08:20:59.337Z,22.80
2018-10-09T08:23:28.038Z,23.20
2018-10-09T08:25:56.713Z,20.90
2018-10-09T08:28:25.398Z,22.17
2018-10-09T08:30:54.027Z,23.40
2018-10-09T08:33:22.768Z,21.27
2018-10-09T08:35:51.403Z,20.40
2018-10-09T08:38:20.125Z,19.67
2018-10-09T08:40:48.829Z,23.20
2018-10-09T08:43:29.681Z,24.63
2018-10-09T08:45:58.403Z,24.50
2018-10-09T08:48:27.084Z,22.57
2018-10-09T08:50:55.721Z,24.57
2018-10-09T08:53:24.428Z,20.67
2018-10-09T08:55:53.101Z,21.00
2018-10-09T08:58:21.759Z,20.63
2018-10-09T09:00:50.495Z,22.70
2018-10-09T09:03:19.187Z,19.83
2018-10-09T09:05:47.808Z,18.57
2018-10-09T09:08:16.503Z,20.57
2018-10-09T09:10:45.179Z,19.07
2018-10-09T09:13:13.863Z,23.87
2018-10-09T09:15:42.545Z,24.47
2018-10-09T09:18:11.204Z,21.17
2018-10-09T09:20:39.939Z,25.30
2018-10-09T09:23:08.539Z,23.50
2018-10-09T09:25:37.265Z,22.63
2018-10-09T09:28:07.162Z,22.57
2018-10-09T09:30:41.461Z,25.37
2018-10-09T09:33:10.191Z,19.50
2018-10-09T09:35:38.964Z,20.57
2018-10-09T09:38:07.657Z,25.13
2018-10-09T09:40:36.435Z,20.90
2018-10-09T09:43:05.145Z,22.10
2018-10-09T09:45:33.828Z,25.97
2018-10-09T09:48:02.554Z,23.43
2018-10-09T09:50:31.145Z,19.23
2018-10-09T09:52:59.831Z,21.93
2018-10-09T09:55:28.485Z,21.10
2018-10-09T09:57:57.300Z,24.37
2018-10-09T10:00:42.472Z,23.47
2018-10-09T10:03:11.250Z,26.27
2018-10-09T10:05:39.916Z,24.83
2018-10-09T10:08:08.604Z,26.90
2018-10-09T10:10:37.303Z,23.37
2018-10-09T10:13:05.968Z,22.17
2018-10-09T10:15:34.704Z,23.43
2018-10-09T10:18:03.387Z,20.97
2018-10-09T10:20:32.000Z,23.17
2018-10-09T10:23:00.689Z,20.37
2018-10-09T10:25:30.489Z,19.93
2018-10-09T10:27:59.232Z,24.30
2018-10-09T10:30:27.905Z,21.10
2018-10-09T10:32:56.645Z,21.40
2018-10-09T10:35:25.367Z,20.13
2018-10-09T10:37:54.099Z,19.83
2018-10-09T10:40:22.824Z,20.30
2018-10-09T10:42:51.583Z,18.63
2018-10-09T10:45:20.375Z,22.20
2018-10-09T10:47:49.080Z,20.67
2018-10-09T10:50:17.820Z,22.80
2018-10-09T10:52:46.721Z,21.27
2018-10-09T10:55:15.372Z,18.20
2018-10-09T10:57:44.039Z,19.60
2018-10-09T11:00:12.727Z,18.20
2018-10-09T11:02:41.453Z,19.80
2018-10-09T11:05:10.216Z,18.70
2018-10-09T11:07:39.249Z,18.93
2018-10-09T11:10:08.597Z,17.93
2018-10-09T11:12:37.280Z,18.43
2018-10-09T11:15:08.216Z,18.67
2018-10-09T11:17:36.973Z,17.03
2018-10-09T11:20:05.851Z,18.57
2018-10-09T11:22:34.575Z,16.20
2018-10-09T11:25:03.255Z,16.43
2018-10-09T11:27:31.957Z,20.80
2018-10-09T11:30:00.608Z,17.13
2018-10-09T11:32:29.400Z,18.10
2018-10-09T11:34:58.013Z,19.87
2018-10-09T11:37:26.641Z,17.70
2018-10-09T11:39:55.268Z,22.50
2018-10-09T11:42:23.976Z,17.10
2018-10-09T11:44:52.572Z,19.83
2018-10-09T11:47:21.226Z,19.47
2018-10-09T11:49:49.901Z,18.47
2018-10-09T11:52:18.638Z,18.83
2018-10-09T11:54:47.488Z,16.60
2018-10-09T11:57:20.653Z,16.87
2018-10-09T11:59:49.407Z,15.13
2018-10-09T12:02:18.126Z,13.93
2018-10-09T12:04:46.788Z,16.77
2018-10-09T12:07:15.404Z,18.97
2018-10-09T12:09:44.105Z,16.33
2018-10-09T12:12:12.788Z,17.13
2018-10-09T12:14:41.525Z,18.13
2018-10-09T12:17:10.142Z,17.47
2018-10-09T12:19:38.892Z,16.13
2018-10-09T12:22:07.609Z,16.37
2018-10-09T12:24:36.294Z,17.50
2018-10-09T12:27:05.018Z,17.20
2018-10-09T12:29:33.665Z,22.70
2018-10-09T12:32:02.325Z,16.53
2018-10-09T12:34:31.015Z,15.20
2018-10-09T12:36:59.691Z,15.47
2018-10-09T12:39:28.332Z,17.33
2018-10-09T12:41:57.063Z,16.03
2018-10-09T12:44:25.879Z,16.83
2018-10-09T12:46:54.437Z,19.13
2018-10-09T12:49:23.169Z,17.67
2018-10-09T12:51:51.825Z,18.10
2018-10-09T12:54:20.446Z,15.90
2018-10-09T12:56:49.284Z,21.07
2018-10-09T12:59:18.001Z,16.97
2018-10-09T13:01:46.667Z,19.93
2018-10-09T13:04:15.374Z,17.03
2018-10-09T13:06:44.120Z,17.73
2018-10-09T13:09:13.907Z,18.60
2018-10-09T13:11:42.657Z,20.70
2018-10-09T13:14:11.317Z,16.47
2018-10-09T13:16:39.995Z,16.70
2018-10-09T13:19:08.652Z,15.50
2018-10-09T13:21:37.555Z,15.53
2018-10-09T13:24:06.283Z,16.07
2018-10-09T13:26:34.938Z,16.03
2018-10-09T13:29:03.645Z,21.47
2018-10-09T13:31:32.365Z,16.00
2018-10-09T13:34:01.111Z,14.43
2018-10-09T13:36:29.695Z,16.20
2018-10-09T13:39:10.959Z,15.97
2018-10-09T13:41:39.565Z,15.33
2018-10-09T13:44:08.510Z,14.07
2018-10-09T13:46:38.740Z,17.43
2018-10-09T13:49:08.346Z,14.50
2018-10-09T13:51:37.113Z,14.73
2018-10-09T13:54:22.117Z,17.03
2018-10-09T13:56:50.819Z,17.33
2018-10-09T13:59:19.480Z,14.57
2018-10-09T14:01:48.162Z,17.00
2018-10-09T14:04:16.832Z,14.37
2018-10-09T14:06:45.589Z,15.10
2018-10-09T14:09:14.237Z,16.00
2018-10-09T14:11:43.004Z,21.33
2018-10-09T14:14:11.724Z,14.60
2018-10-09T14:16:41.511Z,15.47
2018-10-09T14:19:10.435Z,15.40
2018-10-09T14:21:39.068Z,14.50
2018-10-09T14:24:07.773Z,14.17
2018-10-09T14:26:36.833Z,15.93
2018-10-09T14:29:05.637Z,14.23
2018-10-09T14:31:34.282Z,15.57
2018-10-09T14:34:02.939Z,13.40
2018-10-09T14:36:31.704Z,13.53
2018-10-09T14:39:00.376Z,15.23
2018-10-09T14:41:29.105Z,13.50
2018-10-09T14:43:57.854Z,16.13
2018-10-09T14:46:26.477Z,14.23
2018-10-09T14:48:55.217Z,13.00
2018-10-09T14:51:23.861Z,13.70
2018-10-09T14:53:52.587Z,14.07
2018-10-09T14:56:21.270Z,13.43
2018-10-09T14:58:56.504Z,11.83
2018-10-09T15:01:25.112Z,13.37
2018-10-09T15:03:53.786Z,13.73
2018-10-09T15:06:23.286Z,13.57
2018-10-09T15:08:51.897Z,13.00
2018-10-09T15:11:20.565Z,15.53
2018-10-09T15:13:49.450Z,14.83
2018-10-09T15:16:18.085Z,13.93
2018-10-09T15:18:47.302Z,13.17
2018-10-09T15:21:16.027Z,13.97
2018-10-09T15:23:44.769Z,16.37
2018-10-09T15:26:13.549Z,16.43
2018-10-09T15:28:42.221Z,18.20
2018-10-09T15:31:10.824Z,16.93
2018-10-09T15:33:39.498Z,14.47
2018-10-09T15:36:08.225Z,13.57
2018-10-09T15:38:36.888Z,13.60
2018-10-09T15:41:05.624Z,14.67
2018-10-09T15:43:34.340Z,14.13
2018-10-09T15:46:03.007Z,12.40
2018-10-09T15:48:31.670Z,13.60
2018-10-09T15:51:00.333Z,13.10
2018-10-09T15:53:29.016Z,13.43
2018-10-09T15:55:57.593Z,13.00
2018-10-09T15:58:26.311Z,14.43
2018-10-09T16:00:54.961Z,13.37
2018-10-09T16:03:23.626Z,14.80
2018-10-09T16:05:52.377Z,15.43
2018-10-09T16:08:21.103Z,14.10
2018-10-09T16:10:49.854Z,14.43
2018-10-09T16:13:18.753Z,15.63
2018-10-09T16:15:47.336Z,15.30
2018-10-09T16:18:15.995Z,13.80
2018-10-09T16:20:44.701Z,14.40
2018-10-09T16:23:13.325Z,13.73
2018-10-09T16:25:41.999Z,12.40
2018-10-09T16:28:10.652Z,15.17
2018-10-09T16:30:39.348Z,17.57
2018-10-09T16:33:08.156Z,14.50
2018-10-09T16:35:36.753Z,13.87
2018-10-09T16:38:05.445Z,13.73
2018-10-09T16:40:34.202Z,14.33
2018-10-09T16:43:02.870Z,15.60
2018-10-09T16:45:31.533Z,18.77
2018-10-09T16:48:00.277Z,17.77
2018-10-09T16:50:28.927Z,14.93
2018-10-09T16:52:57.551Z,15.90
2018-10-09T16:55:26.200Z,14.83
2018-10-09T16:57:54.840Z,16.80
2018-10-09T17:00:23.508Z,17.77
2018-10-09T17:02:52.084Z,15.00
2018-10-09T17:05:20.708Z,15.83
2018-10-09T17:07:49.379Z,16.10
2018-10-09T17:10:18.000Z,14.43
2018-10-09T17:12:46.624Z,17.63
2018-10-09T17:15:15.388Z,14.53
2018-10-09T17:17:44.148Z,15.90
2018-10-09T17:20:12.813Z,18.33
2018-10-09T17:22:41.465Z,16.67
2018-10-09T17:25:10.119Z,17.27
2018-10-09T17:27:38.905Z,16.30
2018-10-09T17:30:08.141Z,18.80
2018-10-09T17:32:36.938Z,16.90
2018-10-09T17:35:06.092Z,16.90
2018-10-09T17:37:34.655Z,18.67
2018-10-09T17:40:03.408Z,20.07
2018-10-09T17:42:32.317Z,18.73
2018-10-09T17:45:00.941Z,18.07
2018-10-09T17:47:29.511Z,18.83
2018-10-09T17:49:58.201Z,16.13
2018-10-09T17:52:26.728Z,17.00
2018-10-09T17:54:55.430Z,16.50
2018-10-09T17:57:24.244Z,19.33
2018-10-09T17:59:52.913Z,16.20
2018-10-09T18:02:21.740Z,19.67
2018-10-09T18:04:50.498Z,18.40
2018-10-09T18:07:19.160Z,15.67
2018-10-09T18:09:48.049Z,17.37
2018-10-09T18:12:16.703Z,19.83
2018-10-09T18:14:46.053Z,19.97
2018-10-09T18:17:15.177Z,17.50
2018-10-09T18:19:43.929Z,17.07
2018-10-09T18:22:12.595Z,16.27
2018-10-09T18:24:41.237Z,18.93
2018-10-09T18:27:09.895Z,19.30
2018-10-09T18:29:39.139Z,18.67
2018-10-09T18:32:08.104Z,19.33
2018-10-09T18:34:36.775Z,17.63
2018-10-09T18:37:05.851Z,21.07
2018-10-09T18:39:34.889Z,20.87
2018-10-09T18:42:03.809Z,21.07
2018-10-09T18:44:32.449Z,18.27
2018-10-09T18:47:01.151Z,18.33
2018-10-09T18:49:29.792Z,19.83
2018-10-09T18:51:58.433Z,19.33
2018-10-09T18:54:27.085Z,17.97
2018-10-09T18:56:55.733Z,23.70
2018-10-09T18:59:24.486Z,18.00
2018-10-09T19:01:53.124Z,22.33
2018-10-09T19:04:21.850Z,17.37
2018-10-09T19:06:50.599Z,20.17
2018-10-09T19:09:19.220Z,20.33
2018-10-09T19:11:47.837Z,23.53
2018-10-09T19:14:16.532Z,23.83
2018-10-09T19:16:45.148Z,22.37
2018-10-09T19:19:13.800Z,26.03
2018-10-09T19:21:43.556Z,21.10
2018-10-09T19:24:12.341Z,24.67
2018-10-09T19:26:41.180Z,22.10
2018-10-09T19:29:09.818Z,22.60
2018-10-09T19:31:38.985Z,20.87
2018-10-09T19:34:08.717Z,23.20
2018-10-09T19:36:37.465Z,22.67
2018-10-09T19:39:08.727Z,22.10
2018-10-09T19:41:38.018Z,25.20
2018-10-09T19:44:06.813Z,20.03
2018-10-09T19:46:35.649Z,20.70
2018-10-09T19:49:07.275Z,20.80
2018-10-09T19:51:36.037Z,24.73
2018-10-09T19:54:04.657Z,20.63
2018-10-09T19:56:33.382Z,24.63
2018-10-09T19:59:02.088Z,23.73
2018-10-09T20:01:30.777Z,26.90
2018-10-09T20:03:59.403Z,23.80
2018-10-09T20:06:28.236Z,23.33
2018-10-09T20:08:57.063Z,23.70
2018-10-09T20:11:25.838Z,25.37
2018-10-09T20:13:54.479Z,21.83
2018-10-09T20:16:23.157Z,25.33
2018-10-09T20:18:51.889Z,25.27
2018-10-09T20:21:20.536Z,20.67
2018-10-09T20:23:49.253Z,24.27
2018-10-09T20:26:21.016Z,22.67
2018-10-09T20:28:49.681Z,24.90
2018-10-09T20:31:18.248Z,23.20
2018-10-09T20:33:46.972Z,21.40
2018-10-09T20:36:15.692Z,22.63
2018-10-09T20:38:44.312Z,24.63
2018-10-09T20:41:13.031Z,20.17
2018-10-09T20:43:41.860Z,21.10
2018-10-09T20:46:10.525Z,21.63
2018-10-09T20:48:39.168Z,21.77
2018-10-09T20:51:08.140Z,26.40
2018-10-09T20:53:36.769Z,30.10
2018-10-09T20:56:05.477Z,25.27
2018-10-09T20:58:34.168Z,25.87
2018-10-09T21:01:02.920Z,23.50
2018-10-09T21:03:31.566Z,21.27
2018-10-09T21:06:00.316Z,26.93
2018-10-09T21:08:28.972Z,27.70
2018-10-09T21:10:57.802Z,28.60
2018-10-09T21:13:26.596Z,25.97
2018-10-09T21:15:55.266Z,27.27
2018-10-09T21:18:23.876Z,29.27
2018-10-09T21:20:52.561Z,31.53
2018-10-09T21:23:21.175Z,32.90
2018-10-09T21:25:49.825Z,35.43
2018-10-09T21:28:18.493Z,37.87
2018-10-09T21:30:47.280Z,36.37
2018-10-09T21:33:15.979Z,31.67
2018-10-09T21:35:44.689Z,32.43
2018-10-09T21:38:13.395Z,35.03
2018-10-09T21:40:41.955Z,36.23
2018-10-09T21:43:10.621Z,32.67
2018-10-09T21:45:39.311Z,36.67
2018-10-09T21:48:07.990Z,40.70
2018-10-09T21:50:36.753Z,37.00
2018-10-09T21:53:05.347Z,35.27
2018-10-09T21:55:34.053Z,39.67
2018-10-09T21:58:02.728Z,40.60
2018-10-09T22:00:35.616Z,36.90
2018-10-09T22:03:04.244Z,40.90
2018-10-09T22:05:32.910Z,36.93
2018-10-09T22:08:01.582Z,39.83
2018-10-09T22:10:30.208Z,41.67
2018-10-09T22:12:58.856Z,37.27
2018-10-09T22:15:27.494Z,38.47
2018-10-09T22:17:56.129Z,41.40
2018-10-09T22:20:24.733Z,41.27
2018-10-09T22:22:53.381Z,42.67
2018-10-09T22:25:22.057Z,45.33
2018-10-09T22:27:50.712Z,40.13
2018-10-09T22:30:19.441Z,43.63
2018-10-09T22:32:48.122Z,42.00
2018-10-09T22:35:16.788Z,45.30
2018-10-09T22:37:45.492Z,45.50
2018-10-09T22:40:14.140Z,48.67
2018-10-09T22:42:42.821Z,42.43
2018-10-09T22:45:11.437Z,43.93
2018-10-09T22:47:40.783Z,44.53
2018-10-09T22:50:09.436Z,46.50
2018-10-09T22:52:38.041Z,43.73
2018-10-09T22:55:07.454Z,46.00
2018-10-09T22:57:36.148Z,45.43
2018-10-09T23:00:05.084Z,42.37
2018-10-09T23:02:33.724Z,53.80
2018-10-09T23:05:02.340Z,42.27
2018-10-09T23:07:30.941Z,50.30
2018-10-09T23:09:59.576Z,49.33
2018-10-09T23:12:28.260Z,48.90
2018-10-09T23:14:56.921Z,48.07
2018-10-09T23:17:25.634Z,49.77
2018-10-09T23:19:54.303Z,52.83
2018-10-09T23:22:22.941Z,52.70
2018-10-09T23:24:51.621Z,46.67
2018-10-09T23:27:20.279Z,44.00
2018-10-09T23:29:48.925Z,47.00
2018-10-09T23:32:17.596Z,48.47
2018-10-09T23:34:46.293Z,50.53
2018-10-09T23:37:14.956Z,51.43
2018-10-09T23:39:43.662Z,54.03
2018-10-09T23:42:12.520Z,49.63
2018-10-09T23:44:41.277Z,53.53
2018-10-09T23:47:09.905Z,54.97
2018-10-09T23:49:38.556Z,49.93
2018-10-09T23:52:07.309Z,46.73
2018-10-09T23:54:35.974Z,49.03
2018-10-09T23:57:04.710Z,48.70
2018-10-09T23:59:33.539Z,47.30
